Time;durP1;ratioP1;P1;durP2;ratioP2;P2;SDS_P1;SDS_P2;PMS_P1;PMS_P2;Temp;Humidity;BMP_temperature;BMP_pressure;BME280_temperature;BME280_humidity;BME280_pressure;Samples;Min_cycle;Max_cycle;Signal;HPM_P1;HPM_P2
2021/11/18 00:01:37;;;;;;;;;29.50;23.75;;;;;10.60;71.85;102671.47;5036824;28;47400;-81
2021/11/18 00:04:03;;;;;;;;;31.50;24.75;;;;;10.65;71.63;102676.13;5071044;28;45491;-86
2021/11/18 00:06:28;;;;;;;;;34.00;26.75;;;;;10.65;71.68;102667.28;5057658;28;45378;-79
2021/11/18 00:08:54;;;;;;;;;28.00;24.25;;;;;10.63;71.34;102668.97;5057729;28;51108;-80
2021/11/18 00:11:20;;;;;;;;;34.75;24.50;;;;;10.62;71.38;102683.91;5068829;28;46573;-81
2021/11/18 00:13:51;;;;;;;;;32.25;26.50;;;;;10.58;71.57;102673.16;5060126;28;45403;-82
2021/11/18 00:16:17;;;;;;;;;29.00;23.25;;;;;10.59;71.44;102688.16;5077908;28;45365;-83
2021/11/18 00:18:43;;;;;;;;;32.00;22.25;;;;;10.55;71.67;102680.97;5074499;28;46007;-85
2021/11/18 00:21:21;;;;;;;;;25.75;21.75;;;;;10.57;71.74;102679.28;5022789;28;47363;-84
2021/11/18 00:23:49;;;;;;;;;29.25;24.50;;;;;10.52;71.74;102672.91;5036989;28;45430;-84
2021/11/18 00:26:14;;;;;;;;;23.50;20.75;;;;;10.48;71.61;102672.78;5024048;28;45522;-83
2021/11/18 00:28:40;;;;;;;;;29.00;21.00;;;;;10.47;71.29;102681.53;5077703;28;45316;-80
2021/11/18 00:31:05;;;;;;;;;26.25;23.00;;;;;10.44;71.40;102675.25;5041603;28;46832;-86
2021/11/18 00:33:31;;;;;;;;;25.00;19.50;;;;;10.42;71.41;102669.88;5038934;28;46394;-81
2021/11/18 00:35:56;;;;;;;;;25.50;22.75;;;;;10.40;71.41;102675.97;5040116;28;45450;-80
2021/11/18 00:38:21;;;;;;;;;34.25;25.75;;;;;10.40;71.87;102665.41;5070081;28;45344;-86
2021/11/18 00:40:49;;;;;;;;;34.75;27.75;;;;;10.35;71.87;102651.09;5022751;28;45659;-81
2021/11/18 00:43:15;;;;;;;;;25.50;22.50;;;;;10.40;71.94;102655.75;5057117;28;45399;-81
2021/11/18 00:45:40;;;;;;;;;29.75;24.00;;;;;10.38;71.59;102648.56;5063449;28;45452;-86
2021/11/18 00:48:06;;;;;;;;;23.50;20.50;;;;;10.30;71.49;102627.16;5042538;28;45560;-80
2021/11/18 00:50:53;;;;;;;;;31.25;24.25;;;;;10.31;71.25;102642.16;5065598;28;45553;-80
2021/11/18 00:53:19;;;;;;;;;27.25;20.00;;;;;10.30;71.35;102642.09;5017939;28;45405;-79
2021/11/18 00:55:44;;;;;;;;;28.50;23.00;;;;;10.25;71.39;102633.09;5071100;28;45482;-87
2021/11/18 00:58:11;;;;;;;;;25.25;23.50;;;;;10.20;71.47;102622.28;5077299;28;46844;-78
2021/11/18 01:00:37;;;;;;;;;29.75;23.25;;;;;10.21;71.31;102647.84;5076858;28;45673;-83
2021/11/18 01:03:03;;;;;;;;;24.50;23.25;;;;;10.17;70.98;102652.13;5077215;28;45575;-82
2021/11/18 01:05:31;;;;;;;;;24.50;20.75;;;;;10.17;71.00;102659.09;5076818;28;45414;-81
2021/11/18 01:07:57;;;;;;;;;31.00;22.25;;;;;10.11;71.34;102651.84;5057298;28;45444;-84
2021/11/18 01:10:23;;;;;;;;;33.50;22.50;;;;;10.10;70.97;102649.13;5056615;28;45772;-80
2021/11/18 01:12:48;;;;;;;;;30.00;22.75;;;;;10.09;71.01;102660.53;5039236;28;45357;-81
2021/11/18 01:15:17;;;;;;;;;30.75;23.75;;;;;10.07;71.29;102670.16;5070965;28;45510;-84
2021/11/18 01:17:43;;;;;;;;;28.75;21.25;;;;;10.05;71.25;102674.44;5087712;27;45301;-81
2021/11/18 01:20:09;;;;;;;;;36.00;25.00;;;;;10.00;71.33;102668.97;5067087;28;45756;-83
2021/11/18 01:22:34;;;;;;;;;30.00;24.50;;;;;9.98;71.06;102670.66;5046401;28;45315;-80
2021/11/18 01:25:00;;;;;;;;;32.25;25.75;;;;;9.99;71.14;102672.44;5069214;28;45457;-80
2021/11/18 01:27:25;;;;;;;;;37.00;31.00;;;;;9.97;71.44;102676.75;5045115;28;45622;-81
2021/11/18 01:29:51;;;;;;;;;33.00;23.50;;;;;9.91;71.08;102661.56;5068064;28;45426;-84
2021/11/18 01:32:17;;;;;;;;;31.50;24.25;;;;;9.93;71.36;102672.19;5026077;28;45351;-84
2021/11/18 01:34:42;;;;;;;;;32.75;27.00;;;;;9.93;71.57;102664.25;5038741;28;52886;-84
2021/11/18 01:37:07;;;;;;;;;37.25;29.25;;;;;9.91;71.30;102664.22;5021937;28;45293;-85
2021/11/18 01:39:33;;;;;;;;;35.00;27.25;;;;;9.92;71.25;102670.38;5054253;28;56784;-84
2021/11/18 01:41:58;;;;;;;;;36.50;27.75;;;;;9.90;71.33;102666.75;5048313;28;45703;-82
2021/11/18 01:44:31;;;;;;;;;31.75;27.50;;;;;9.87;71.57;102675.47;5024966;28;45519;-82
2021/11/18 01:46:57;;;;;;;;;40.50;28.75;;;;;9.83;71.14;102676.16;5028450;28;45547;-82
2021/11/18 01:49:22;;;;;;;;;33.25;29.75;;;;;9.84;71.26;102664.75;5058874;28;46381;-86
2021/11/18 01:51:50;;;;;;;;;32.50;26.50;;;;;9.76;71.16;102671.47;5058441;28;57217;-82
2021/11/18 01:54:16;;;;;;;;;34.50;27.75;;;;;9.82;70.97;102690.19;5038199;28;45437;-82
2021/11/18 01:56:42;;;;;;;;;26.00;20.00;;;;;9.80;71.21;102685.66;5038023;28;45596;-81
2021/11/18 01:59:18;;;;;;;;;33.50;30.00;;;;;9.74;71.24;102688.94;5051705;28;48763;-81
2021/11/18 02:01:46;;;;;;;;;33.25;27.75;;;;;9.73;71.05;102688.88;5026871;28;45439;-82
2021/11/18 02:04:13;;;;;;;;;32.00;25.00;;;;;9.73;71.26;102689.78;5041059;28;45478;-82
2021/11/18 02:06:43;;;;;;;;;33.75;30.25;;;;;9.70;71.26;102684.38;5045553;28;45589;-83
2021/11/18 02:09:11;;;;;;;;;30.50;26.50;;;;;9.75;71.61;102687.19;5041936;28;45719;-80
2021/11/18 02:11:51;;;;;;;;;35.00;28.00;;;;;9.74;71.58;102688.94;5063977;28;45341;-84
2021/11/18 02:14:18;;;;;;;;;32.25;25.50;;;;;9.73;71.58;102684.50;5059864;28;45570;-85
2021/11/18 02:16:44;;;;;;;;;29.75;26.00;;;;;9.71;71.55;102681.81;5042367;28;45544;-84
2021/11/18 02:19:11;;;;;;;;;28.00;24.00;;;;;9.73;71.50;102676.59;5041764;28;46110;-81
2021/11/18 02:21:37;;;;;;;;;30.25;25.25;;;;;9.71;71.65;102679.16;5041861;28;45581;-86
2021/11/18 02:24:05;;;;;;;;;29.75;26.75;;;;;9.75;71.27;102685.47;5045682;28;45438;-84
2021/11/18 02:26:31;;;;;;;;;29.25;28.00;;;;;9.74;71.15;102691.56;5045636;28;45667;-86
2021/11/18 02:28:58;;;;;;;;;39.50;35.25;;;;;9.70;71.34;102689.66;5058937;28;45253;-79
2021/11/18 02:31:35;;;;;;;;;39.75;30.75;;;;;9.67;71.17;102685.13;5071389;28;45430;-81
2021/11/18 02:34:01;;;;;;;;;38.00;31.25;;;;;9.65;71.12;102691.19;5056045;28;47292;-82
2021/11/18 02:36:26;;;;;;;;;40.75;31.25;;;;;9.60;71.30;102687.44;5043040;28;45401;-84
2021/11/18 02:38:52;;;;;;;;;38.25;28.50;;;;;9.63;71.27;102690.19;5061864;28;45479;-85
2021/11/18 02:41:18;;;;;;;;;29.75;26.25;;;;;9.58;71.27;102695.25;5065526;28;45382;-85
2021/11/18 02:43:43;;;;;;;;;33.50;24.75;;;;;9.57;71.18;102700.47;5061503;28;45524;-80
2021/11/18 02:46:09;;;;;;;;;30.50;27.75;;;;;9.58;71.05;102702.28;5050414;28;45519;-87
2021/11/18 02:48:35;;;;;;;;;34.00;27.00;;;;;9.56;71.12;102696.94;5074815;28;45666;-84
2021/11/18 02:51:02;;;;;;;;;39.00;28.00;;;;;9.56;71.20;102702.22;5059281;28;45369;-81
2021/11/18 02:53:27;;;;;;;;;29.00;23.50;;;;;9.56;71.31;102706.59;5053834;28;45324;-80
2021/11/18 02:55:53;;;;;;;;;29.00;22.50;;;;;9.54;71.29;102692.44;5041034;28;45663;-82
2021/11/18 02:58:20;;;;;;;;;33.50;27.25;;;;;9.54;71.30;102697.72;5044612;28;45715;-79
2021/11/18 03:01:20;;;;;;;;;26.00;25.75;;;;;9.53;71.38;102703.78;5047205;28;45423;-80
2021/11/18 03:03:45;;;;;;;;;32.25;28.75;;;;;9.53;71.21;102698.53;5054921;28;45252;-84
2021/11/18 03:06:11;;;;;;;;;36.00;29.25;;;;;9.47;70.89;102696.50;5024595;28;45192;-87
2021/11/18 03:08:37;;;;;;;;;33.25;25.25;;;;;9.47;70.92;102706.16;5059293;28;46007;-85
2021/11/18 03:11:02;;;;;;;;;33.50;27.50;;;;;9.49;70.92;102705.41;5060692;28;45530;-81
2021/11/18 03:13:28;;;;;;;;;29.50;27.00;;;;;9.48;70.92;102718.50;5061336;28;45263;-84
2021/11/18 03:15:55;;;;;;;;;28.75;28.00;;;;;9.45;70.91;102711.38;5044219;28;45405;-81
2021/11/18 03:18:23;;;;;;;;;34.00;27.75;;;;;9.36;70.86;102701.28;5060885;28;46975;-84
2021/11/18 03:20:50;;;;;;;;;30.00;24.50;;;;;9.40;70.98;102724.34;5031333;28;45354;-80
2021/11/18 03:23:15;;;;;;;;;36.25;31.00;;;;;9.39;70.70;102719.91;5042286;28;45535;-80
2021/11/18 03:25:41;;;;;;;;;29.50;24.75;;;;;9.38;70.83;102709.31;5059478;28;45286;-82
2021/11/18 03:28:06;;;;;;;;;40.25;29.00;;;;;9.36;70.94;102717.13;5052343;28;46521;-79
2021/11/18 03:30:35;;;;;;;;;33.25;28.25;;;;;9.34;70.36;102713.53;5054627;28;45390;-80
2021/11/18 03:33:02;;;;;;;;;32.50;30.25;;;;;9.34;70.61;102723.16;5037493;28;45369;-81
2021/11/18 03:35:27;;;;;;;;;31.50;26.50;;;;;9.32;71.04;102720.47;5057841;28;45342;-81
2021/11/18 03:37:53;;;;;;;;;25.00;24.25;;;;;9.23;70.69;102700.69;5070594;28;46562;-82
2021/11/18 03:40:19;;;;;;;;;29.75;24.25;;;;;9.28;71.06;102699.16;5059397;28;45408;-80
2021/11/18 03:42:45;;;;;;;;;30.75;26.75;;;;;9.31;70.93;102712.47;5058306;28;45263;-83
2021/11/18 03:45:10;;;;;;;;;34.00;28.00;;;;;9.25;70.88;102709.56;5040088;28;48948;-80
2021/11/18 03:47:35;;;;;;;;;33.50;25.50;;;;;9.26;70.63;102714.88;5040861;28;56810;-83
2021/11/18 03:50:01;;;;;;;;;30.50;24.25;;;;;9.29;70.98;102722.03;5077902;28;54201;-80
2021/11/18 03:52:26;;;;;;;;;31.75;25.50;;;;;9.27;71.01;102726.31;5078626;28;45287;-81
2021/11/18 03:54:52;;;;;;;;;33.25;28.75;;;;;9.24;71.29;102723.56;5069325;28;51560;-80
2021/11/18 03:57:17;;;;;;;;;32.50;25.00;;;;;9.22;71.22;102726.13;5043404;28;58338;-84
2021/11/18 03:59:43;;;;;;;;;34.75;28.25;;;;;9.22;71.11;102719.97;5044533;28;45473;-83
2021/11/18 04:02:09;;;;;;;;;34.75;27.50;;;;;9.26;71.21;102727.16;5049660;28;45375;-84
2021/11/18 04:04:40;;;;;;;;;35.00;25.75;;;;;9.21;70.81;102721.66;5052852;28;45350;-84
2021/11/18 04:07:06;;;;;;;;;33.00;23.50;;;;;9.19;71.30;102723.34;5023321;28;48960;-80
2021/11/18 04:09:32;;;;;;;;;30.75;24.50;;;;;9.14;70.90;102727.50;5049613;28;45248;-85
2021/11/18 04:12:00;;;;;;;;;30.25;26.50;;;;;9.22;71.23;102752.50;5062580;28;45566;-83
2021/11/18 04:14:29;;;;;;;;;34.25;28.00;;;;;9.13;71.15;102731.88;5041682;28;45479;-81
2021/11/18 04:16:54;;;;;;;;;30.50;27.25;;;;;9.18;71.19;102740.91;5039416;28;45392;-82
2021/11/18 04:19:20;;;;;;;;;33.50;27.75;;;;;9.18;70.94;102748.81;5039867;28;45499;-83
2021/11/18 04:21:45;;;;;;;;;35.25;28.50;;;;;9.17;71.09;102744.38;5038911;28;56364;-85
2021/11/18 04:24:13;;;;;;;;;30.75;28.75;;;;;9.19;71.33;102755.88;5040329;28;45616;-81
2021/11/18 04:26:41;;;;;;;;;34.25;28.50;;;;;9.14;71.44;102745.94;5042687;28;45553;-80
2021/11/18 04:29:06;;;;;;;;;36.00;32.50;;;;;9.15;71.10;102751.28;5049704;28;46013;-82
2021/11/18 04:31:31;;;;;;;;;28.00;25.50;;;;;9.19;70.87;102760.25;5059196;28;45301;-84
2021/11/18 04:33:57;;;;;;;;;28.00;27.00;;;;;9.13;71.32;102750.31;5059132;28;45534;-80
2021/11/18 04:36:23;;;;;;;;;31.75;28.75;;;;;9.17;71.11;102756.66;5058449;28;46512;-81
2021/11/18 04:38:51;;;;;;;;;38.00;30.25;;;;;9.15;71.21;102760.91;5077650;28;45424;-84
2021/11/18 04:41:16;;;;;;;;;36.75;29.00;;;;;9.15;71.42;102767.09;5045922;28;45407;-84
2021/11/18 04:43:42;;;;;;;;;35.50;28.75;;;;;9.13;71.04;102767.88;5059365;28;45453;-82
2021/11/18 04:46:09;;;;;;;;;38.00;30.25;;;;;9.11;71.33;102773.06;5040220;28;45391;-80
2021/11/18 04:48:38;;;;;;;;;42.75;34.00;;;;;9.09;71.30;102774.72;5057053;28;45455;-81
2021/11/18 04:51:04;;;;;;;;;33.25;29.00;;;;;9.09;71.06;102771.19;5039944;28;45378;-80
2021/11/18 04:53:30;;;;;;;;;32.25;25.75;;;;;9.08;71.42;102780.81;5057427;28;45597;-85
2021/11/18 04:55:55;;;;;;;;;43.00;32.00;;;;;9.07;71.80;102784.28;5076906;28;46756;-82
2021/11/18 04:58:21;;;;;;;;;42.75;33.50;;;;;9.04;71.37;102777.94;5058596;28;49486;-84
2021/11/18 05:00:49;;;;;;;;;35.00;27.00;;;;;9.04;71.65;102776.22;5067543;28;45498;-83
2021/11/18 05:03:15;;;;;;;;;31.50;27.25;;;;;9.01;71.34;102775.19;5042401;28;45556;-82
2021/11/18 05:05:40;;;;;;;;;29.50;26.25;;;;;9.03;71.43;102779.69;5039163;28;45486;-82
2021/11/18 05:08:06;;;;;;;;;41.00;31.50;;;;;9.04;71.42;102784.13;5022996;28;45511;-80
2021/11/18 05:10:31;;;;;;;;;31.75;29.00;;;;;9.04;71.25;102792.03;5068910;28;51998;-84
2021/11/18 05:12:57;;;;;;;;;34.25;30.50;;;;;9.01;71.40;102786.63;5042724;28;45466;-80
2021/11/18 05:15:25;;;;;;;;;33.75;26.75;;;;;9.00;71.21;102781.25;5028590;22;59725;-81
2021/11/18 05:17:51;;;;;;;;;37.25;24.50;;;;;9.01;71.03;102785.72;5028763;28;45456;-87
2021/11/18 05:20:18;;;;;;;;;45.75;31.00;;;;;9.01;71.42;102780.47;5047924;28;45511;-80
2021/11/18 05:22:43;;;;;;;;;32.25;29.75;;;;;8.97;71.25;102775.84;5062876;28;45359;-80
2021/11/18 05:25:09;;;;;;;;;31.25;27.25;;;;;9.01;71.22;102789.25;5035204;28;46238;-80
2021/11/18 05:27:34;;;;;;;;;34.75;26.50;;;;;9.02;71.58;102783.16;5054664;28;45435;-83
2021/11/18 05:29:59;;;;;;;;;34.25;25.25;;;;;9.05;71.52;102782.38;5050986;28;45589;-78
2021/11/18 05:32:25;;;;;;;;;35.75;27.00;;;;;9.06;71.55;102787.75;5038625;28;54881;-78
2021/11/18 05:34:50;;;;;;;;;29.50;26.00;;;;;9.07;71.41;102778.13;5053754;28;56603;-79
2021/11/18 05:37:16;;;;;;;;;30.75;28.00;;;;;9.05;71.58;102779.75;5035981;28;45421;-78
2021/11/18 05:39:41;;;;;;;;;35.50;27.75;;;;;9.02;71.19;102788.44;5036826;28;45491;-78
2021/11/18 05:42:07;;;;;;;;;36.50;30.75;;;;;9.02;71.23;102792.78;5019605;28;45508;-79
2021/11/18 05:44:32;;;;;;;;;31.25;26.00;;;;;8.98;70.88;102785.56;5037249;28;46450;-79
2021/11/18 05:46:57;;;;;;;;;31.50;22.50;;;;;8.96;70.68;102790.75;5039601;28;58529;-77
2021/11/18 05:49:23;;;;;;;;;33.00;26.75;;;;;8.93;70.72;102802.03;5041043;28;46844;-78
2021/11/18 05:51:48;;;;;;;;;33.25;26.75;;;;;8.88;70.80;102797.38;5032747;28;48522;-79
2021/11/18 05:54:14;;;;;;;;;33.00;25.75;;;;;8.85;70.61;102794.59;5030472;28;62232;-78
2021/11/18 05:56:42;;;;;;;;;31.50;26.00;;;;;8.86;70.78;102802.56;5035162;28;45438;-78
2021/11/18 05:59:08;;;;;;;;;38.75;29.25;;;;;8.82;71.30;102800.63;5037351;28;45586;-80
2021/11/18 06:01:34;;;;;;;;;32.75;31.00;;;;;8.81;71.16;102804.06;5035111;28;45598;-81
2021/11/18 06:03:59;;;;;;;;;32.00;27.75;;;;;8.86;71.14;102818.38;5036664;28;46141;-78
2021/11/18 06:06:25;;;;;;;;;37.75;30.75;;;;;8.86;71.42;102815.75;5055285;28;45537;-78
2021/11/18 06:08:51;;;;;;;;;43.50;32.50;;;;;8.84;70.98;102824.38;5050676;28;45397;-77
2021/11/18 06:11:16;;;;;;;;;33.00;30.50;;;;;8.82;71.32;102821.69;5045479;28;45450;-82
2021/11/18 06:13:42;;;;;;;;;40.75;30.75;;;;;8.83;71.31;102828.75;5036282;28;46625;-79
2021/11/18 06:16:07;;;;;;;;;39.50;34.00;;;;;8.83;71.19;102819.94;5014181;28;46452;-80
2021/11/18 06:18:33;;;;;;;;;37.25;30.25;;;;;8.82;71.01;102818.16;5031176;28;45615;-80
2021/11/18 06:21:29;;;;;;;;;28.25;26.00;;;;;8.72;71.17;102800.06;5029736;28;54107;-79
2021/11/18 06:23:54;;;;;;;;;36.50;27.00;;;;;8.83;71.25;102814.69;5036694;28;46592;-77
2021/11/18 06:26:20;;;;;;;;;39.00;28.75;;;;;8.79;71.19;102813.66;5038558;28;45578;-79
2021/11/18 06:28:46;;;;;;;;;40.50;30.25;;;;;8.78;71.07;102813.53;5053422;28;45376;-77
2021/11/18 06:31:12;;;;;;;;;33.25;25.75;;;;;8.80;71.17;102819.81;5046017;28;45553;-77
2021/11/18 06:33:38;;;;;;;;;35.00;29.50;;;;;8.81;70.79;102817.25;5035255;28;46271;-78
2021/11/18 06:36:04;;;;;;;;;38.00;27.25;;;;;8.81;71.05;102833.06;5037357;28;45504;-77
2021/11/18 06:38:29;;;;;;;;;36.00;28.75;;;;;8.78;70.88;102838.16;5063999;28;45444;-78
2021/11/18 06:40:54;;;;;;;;;32.50;27.00;;;;;8.79;70.92;102833.78;5058616;28;53231;-79
2021/11/18 06:43:38;;;;;;;;;30.50;25.50;;;;;8.73;71.07;102829.13;5044131;28;46100;-77
2021/11/18 06:46:04;;;;;;;;;34.75;28.00;;;;;8.78;70.98;102838.16;5053136;28;45508;-76
2021/11/18 06:48:32;;;;;;;;;33.50;29.00;;;;;8.78;71.15;102837.25;5062222;28;45822;-75
2021/11/18 06:51:05;;;;;;;;;34.25;27.50;;;;;8.75;71.19;102832.75;5056401;28;45496;-76
2021/11/18 06:53:33;;;;;;;;;39.00;30.75;;;;;8.77;71.20;102839.00;5064540;28;45961;-76
2021/11/18 06:55:58;;;;;;;;;29.25;26.75;;;;;8.72;71.37;102831.69;5056851;28;45388;-75
2021/11/18 06:58:24;;;;;;;;;35.00;28.25;;;;;8.73;70.84;102839.66;5040496;28;49509;-79
2021/11/18 07:00:50;;;;;;;;;31.25;29.00;;;;;8.72;70.79;102840.47;5062120;28;48704;-79
2021/11/18 07:03:15;;;;;;;;;37.00;31.25;;;;;8.72;70.79;102845.75;5066117;28;46404;-77
2021/11/18 07:05:41;;;;;;;;;36.50;28.50;;;;;8.68;70.97;102848.16;5070717;28;53984;-77
2021/11/18 07:08:06;;;;;;;;;34.00;30.75;;;;;8.66;70.80;102848.06;5047874;28;45204;-79
2021/11/18 07:10:32;;;;;;;;;37.50;34.50;;;;;8.69;70.95;102852.63;5021259;28;45683;-77
2021/11/18 07:12:58;;;;;;;;;37.00;33.00;;;;;8.69;71.18;102848.25;5055901;28;45794;-78
2021/11/18 07:15:24;;;;;;;;;39.00;35.50;;;;;8.70;70.75;102846.50;5039425;28;45621;-79
2021/11/18 07:17:49;;;;;;;;;38.50;33.25;;;;;8.72;70.71;102842.22;5054744;28;45594;-78
2021/11/18 07:20:15;;;;;;;;;37.50;32.00;;;;;8.72;70.80;102847.47;5055932;28;48092;-80
2021/11/18 07:22:40;;;;;;;;;38.00;30.25;;;;;8.71;70.72;102856.22;5038551;28;51338;-77
2021/11/18 07:25:08;;;;;;;;;34.50;31.25;;;;;8.71;70.63;102858.84;5060369;28;45408;-79
2021/11/18 07:27:34;;;;;;;;;40.00;33.25;;;;;8.66;70.74;102843.72;5044482;28;45757;-79
2021/11/18 07:29:59;;;;;;;;;36.75;29.50;;;;;8.69;70.47;102845.63;5063748;28;45393;-76
2021/11/18 07:32:25;;;;;;;;;43.00;35.25;;;;;8.62;70.90;102838.19;5043406;28;48257;-77
2021/11/18 07:34:51;;;;;;;;;41.00;32.50;;;;;8.68;70.64;102841.16;5067267;28;53534;-79
2021/11/18 07:37:16;;;;;;;;;32.00;25.50;;;;;8.70;71.04;102847.41;5045271;28;45703;-79
2021/11/18 07:39:42;;;;;;;;;38.50;28.00;;;;;8.73;70.59;102844.91;5039638;28;45468;-79
2021/11/18 07:42:07;;;;;;;;;42.00;31.75;;;;;8.73;70.75;102842.28;5043710;28;55898;-83
2021/11/18 07:44:33;;;;;;;;;32.50;31.25;;;;;8.76;70.44;102846.81;5047447;28;45804;-78
2021/11/18 07:46:58;;;;;;;;;46.00;33.00;;;;;8.76;70.81;102846.81;5051125;28;46121;-78
2021/11/18 07:49:34;;;;;;;;;55.25;39.75;;;;;8.77;70.54;102840.72;5041757;28;45597;-78
2021/11/18 07:51:59;;;;;;;;;50.75;39.50;;;;;8.78;70.90;102845.16;5033837;28;45655;-79
2021/11/18 07:54:25;;;;;;;;;48.00;40.25;;;;;8.71;70.71;102816.72;5027416;28;45525;-79
2021/11/18 07:56:51;;;;;;;;;50.25;40.00;;;;;8.80;70.77;102849.69;5055886;28;46649;-78
2021/11/18 07:59:17;;;;;;;;;54.50;41.00;;;;;8.83;70.89;102843.66;5043434;28;45551;-78
2021/11/18 08:01:43;;;;;;;;;55.00;40.25;;;;;8.84;70.85;102853.34;5033755;28;46514;-78
2021/11/18 08:04:09;;;;;;;;;53.00;40.75;;;;;8.85;70.79;102842.94;5052719;28;45552;-78
2021/11/18 08:06:34;;;;;;;;;40.75;37.50;;;;;8.90;70.58;102853.69;5037285;28;54745;-78
2021/11/18 08:09:00;;;;;;;;;47.25;39.75;;;;;8.92;70.72;102860.84;5048803;28;45586;-77
2021/11/18 08:11:27;;;;;;;;;51.50;39.25;;;;;8.96;70.94;102866.28;5048169;28;47310;-78
2021/11/18 08:13:53;;;;;;;;;53.25;41.50;;;;;8.98;71.03;102862.88;5032706;28;45621;-78
2021/11/18 08:16:18;;;;;;;;;54.50;43.00;;;;;8.97;70.79;102858.44;5027922;28;45484;-78
2021/11/18 08:18:44;;;;;;;;;51.00;40.00;;;;;8.99;70.93;102846.22;5037557;28;45595;-79
2021/11/18 08:21:09;;;;;;;;;49.00;39.75;;;;;9.07;70.73;102857.16;5034762;28;47145;-77
2021/11/18 08:23:38;;;;;;;;;49.75;38.00;;;;;9.08;70.95;102851.06;5016667;28;45520;-78
2021/11/18 08:26:05;;;;;;;;;44.75;39.25;;;;;9.12;70.93;102853.94;4997175;28;45650;-78
2021/11/18 08:28:30;;;;;;;;;42.50;39.25;;;;;9.10;71.21;102847.66;5026451;28;45612;-78
2021/11/18 08:30:56;;;;;;;;;54.50;41.25;;;;;9.20;71.26;102859.56;5032293;28;48708;-78
2021/11/18 08:33:21;;;;;;;;;58.00;43.00;;;;;9.24;71.17;102866.81;5016105;28;45592;-78
2021/11/18 08:35:47;;;;;;;;;44.50;38.00;;;;;9.25;71.20;102860.69;5039709;28;45536;-78
2021/11/18 08:38:17;;;;;;;;;52.00;42.75;;;;;9.18;71.15;102850.69;5016696;28;46787;-77
2021/11/18 08:41:03;;;;;;;;;57.25;41.25;;;;;9.32;71.35;102860.19;5030299;28;46065;-77
2021/11/18 08:43:33;;;;;;;;;54.00;43.50;;;;;9.42;71.21;102877.31;5035320;28;45498;-78
2021/11/18 08:46:02;;;;;;;;;49.00;40.25;;;;;9.48;71.31;102874.09;5045081;28;45500;-78
2021/11/18 08:48:28;;;;;;;;;47.50;40.00;;;;;9.52;71.39;102873.41;5040275;28;45706;-78
2021/11/18 08:50:54;;;;;;;;;56.50;40.75;;;;;9.59;71.38;102879.06;5031732;28;47541;-78
2021/11/18 08:53:21;;;;;;;;;49.00;39.50;;;;;9.63;71.34;102877.47;5005779;28;46171;-78
2021/11/18 08:55:46;;;;;;;;;54.75;42.25;;;;;9.71;71.63;102890.19;5034230;28;45518;-78
2021/11/18 08:58:13;;;;;;;;;53.75;39.75;;;;;9.73;71.62;102871.78;5034232;28;54292;-79
2021/11/18 09:00:45;;;;;;;;;51.75;40.75;;;;;9.77;71.70;102879.03;5028437;28;45583;-78
2021/11/18 09:03:11;;;;;;;;;53.50;39.25;;;;;9.90;71.42;102873.47;5031989;28;45559;-78
2021/11/18 09:05:36;;;;;;;;;56.25;44.00;;;;;9.93;71.58;102868.34;5036255;28;45531;-78
2021/11/18 09:08:02;;;;;;;;;60.00;44.00;;;;;9.98;71.31;102865.94;5034709;28;45572;-76
2021/11/18 09:10:27;;;;;;;;;50.75;42.75;;;;;9.96;71.28;102855.31;5035119;28;47038;-77
2021/11/18 09:12:53;;;;;;;;;59.00;42.00;;;;;10.12;71.50;102885.94;5035808;28;45297;-78
2021/11/18 09:15:20;;;;;;;;;50.50;42.25;;;;;10.15;71.39;102877.25;5035525;28;45637;-78
2021/11/18 09:17:46;;;;;;;;;56.25;42.75;;;;;10.25;71.34;102894.44;5051904;28;45587;-77
2021/11/18 09:20:13;;;;;;;;;54.25;43.25;;;;;10.31;71.44;102889.44;5052969;28;46522;-78
2021/11/18 09:22:39;;;;;;;;;60.00;44.50;;;;;10.34;71.04;102898.41;5052960;28;45869;-79
2021/11/18 09:25:06;;;;;;;;;63.25;47.25;;;;;10.36;70.96;102902.00;5057608;28;45717;-77
2021/11/18 09:27:34;;;;;;;;;62.50;47.75;;;;;10.38;71.14;102891.50;5037779;28;45595;-78
2021/11/18 09:30:02;;;;;;;;;59.75;46.50;;;;;10.45;71.03;102894.50;5055324;28;48269;-77
2021/11/18 09:32:31;;;;;;;;;58.75;44.50;;;;;10.52;70.86;102898.31;5064214;28;45350;-78
2021/11/18 09:34:57;;;;;;;;;58.00;47.50;;;;;10.54;70.83;102911.59;5056096;28;45577;-78
2021/11/18 09:37:22;;;;;;;;;57.25;45.25;;;;;10.60;70.61;102903.94;5055288;28;45607;-77
2021/11/18 09:39:48;;;;;;;;;56.25;42.00;;;;;10.67;70.28;102906.94;5020210;28;46517;-79
2021/11/18 09:42:16;;;;;;;;;57.75;43.25;;;;;10.63;70.38;102896.16;5056859;28;45986;-77
2021/11/18 09:44:57;;;;;;;;;58.50;48.00;;;;;10.70;70.24;102901.75;5032874;28;45412;-77
2021/11/18 09:47:47;;;;;;;;;67.25;49.25;;;;;10.74;70.15;102898.41;5037722;28;45597;-78
2021/11/18 09:50:18;;;;;;;;;61.00;47.00;;;;;10.79;70.16;102903.91;5054701;28;46936;-77
2021/11/18 09:53:02;;;;;;;;;61.00;46.50;;;;;10.84;70.15;102904.13;5052295;28;45487;-76
2021/11/18 09:55:40;;;;;;;;;56.25;45.75;;;;;10.87;69.77;102915.72;5060577;28;45619;-77
2021/11/18 09:58:23;;;;;;;;;53.50;42.25;;;;;10.93;69.92;102905.41;5026992;28;45523;-77
2021/11/18 10:01:13;;;;;;;;;54.75;43.25;;;;;10.96;69.85;102908.16;5037945;28;46679;-78
2021/11/18 10:03:54;;;;;;;;;43.00;33.00;;;;;10.99;69.72;102905.66;5064956;28;45439;-77
2021/11/18 10:06:35;;;;;;;;;39.00;32.50;;;;;11.01;69.76;102914.56;5060436;28;45424;-77
2021/11/18 10:09:25;;;;;;;;;36.00;24.50;;;;;11.06;69.74;102924.44;5029987;28;45616;-77
2021/11/18 10:12:21;;;;;;;;;31.50;28.00;;;;;11.02;68.80;102918.09;5052870;28;46601;-76
2021/11/18 10:14:54;;;;;;;;;34.50;32.00;;;;;10.99;69.16;102929.47;5025891;28;45475;-76
2021/11/18 10:17:50;;;;;;;;;30.25;26.00;;;;;10.96;69.25;102931.97;5039251;28;45507;-78
2021/11/18 10:20:24;;;;;;;;;32.00;24.00;;;;;10.98;69.16;102938.25;5042400;28;45543;-76
2021/11/18 10:22:59;;;;;;;;;30.00;28.00;;;;;10.99;69.44;102940.03;5053470;28;47446;-76
2021/11/18 10:25:34;;;;;;;;;34.00;29.00;;;;;11.04;69.43;102919.09;5060907;28;46113;-78
2021/11/18 10:28:23;;;;;;;;;40.75;34.00;;;;;11.04;69.25;102932.31;5043298;28;45444;-79
2021/11/18 10:30:56;;;;;;;;;36.25;30.75;;;;;11.07;68.99;102929.78;5057579;28;45958;-81
2021/11/18 10:33:28;;;;;;;;;44.00;35.25;;;;;11.11;68.91;102938.75;5058963;28;46879;-77
2021/11/18 10:35:53;;;;;;;;;38.00;28.00;;;;;11.10;69.16;102934.31;5057070;28;45565;-78
2021/11/18 10:38:37;;;;;;;;;32.50;24.00;;;;;11.12;69.13;102933.50;5057714;28;46252;-77
2021/11/18 10:41:05;;;;;;;;;35.25;29.00;;;;;11.12;68.79;102932.63;5052744;28;45639;-79
2021/11/18 10:43:35;;;;;;;;;35.00;27.75;;;;;11.07;68.85;102932.41;5062343;28;47143;-78
2021/11/18 10:46:12;;;;;;;;;34.50;32.00;;;;;11.07;69.23;102935.06;5042497;28;45602;-79
2021/11/18 10:48:41;;;;;;;;;36.00;29.00;;;;;11.05;69.23;102928.81;5069170;28;45431;-76
2021/11/18 10:51:11;;;;;;;;;31.25;26.25;;;;;11.07;68.77;102928.88;5027427;28;45485;-73
2021/11/18 10:53:50;;;;;;;;;32.75;30.00;;;;;11.02;68.66;102924.31;5058564;28;46509;-72
2021/11/18 10:56:21;;;;;;;;;50.25;33.75;;;;;10.95;69.02;102924.88;5058534;28;45382;-73
2021/11/18 10:59:00;;;;;;;;;36.75;29.50;;;;;10.93;69.68;102931.84;5040630;28;45583;-73
2021/11/18 11:01:25;;;;;;;;;33.25;27.00;;;;;10.93;69.41;102926.56;5060626;28;45579;-76
2021/11/18 11:03:51;;;;;;;;;41.00;28.50;;;;;10.93;69.33;102937.13;5059060;28;47168;-72
2021/11/18 11:06:23;;;;;;;;;26.00;23.50;;;;;10.94;69.48;102925.72;5039833;28;45392;-73
2021/11/18 11:08:55;;;;;;;;;41.50;31.00;;;;;10.96;69.43;102926.66;5066668;28;45447;-72
2021/11/18 11:11:24;;;;;;;;;39.50;30.00;;;;;11.04;69.77;102928.75;5059569;28;45560;-73
2021/11/18 11:14:03;;;;;;;;;32.25;26.50;;;;;11.12;70.54;102919.41;5042700;28;45864;-73
2021/11/18 11:16:52;;;;;;;;;29.75;24.25;;;;;11.22;70.03;102911.00;5043696;28;45456;-74
2021/11/18 11:19:30;;;;;;;;;30.00;27.25;;;;;11.30;69.15;102914.00;5023108;28;45562;-75